Time;durP1;ratioP1;P1;durP2;ratioP2;P2;SDS_P1;SDS_P2;PMS_P1;PMS_P2;Temp;Humidity;BMP_temperature;BMP_pressure;BME280_temperature;BME280_humidity;BME280_pressure;Samples;Min_cycle;Max_cycle;Signal;HPM_P1;HPM_P2
2023/02/23 00:01:23;;;;;;;78.05;44.63;;;;;;;;;;5002295;28;20061;-92
2023/02/23 00:03:50;;;;;;;91.18;50.58;;;;;;;;;;5000548;28;20478;-90
2023/02/23 00:06:17;;;;;;;116.63;65.50;;;;;;;;;;5000001;28;20022;-89
2023/02/23 00:08:46;;;;;;;99.70;58.03;;;;;;;;;;4984058;28;20035;-90
2023/02/23 00:11:13;;;;;;;133.75;78.55;;;;;;;;;;4999935;28;20492;-92
2023/02/23 00:13:40;;;;;;;199.07;107.15;;;;;;;;;;5000173;28;20026;-93
2023/02/23 00:16:06;;;;;;;197.23;99.68;;;;;;;;;;5000058;28;20022;-90
2023/02/23 00:18:43;;;;;;;111.03;66.82;;;;;;;;;;5000030;28;20062;-91
2023/02/23 00:21:13;;;;;;;87.72;55.88;;;;;;;;;;5000137;28;20025;-88
2023/02/23 00:23:40;;;;;;;90.30;54.47;;;;;;;;;;5000371;28;20083;-92
2023/02/23 00:26:06;;;;;;;177.88;103.32;;;;;;;;;;5000117;28;20026;-89
2023/02/23 00:28:32;;;;;;;150.48;91.25;;;;;;;;;;4999950;28;20029;-90
2023/02/23 00:31:01;;;;;;;180.93;102.70;;;;;;;;;;4999973;28;20029;-90
2023/02/23 00:33:30;;;;;;;124.50;76.18;;;;;;;;;;4999930;28;20025;-91
2023/02/23 00:36:02;;;;;;;89.78;56.88;;;;;;;;;;5000709;28;20025;-90
2023/02/23 00:38:33;;;;;;;83.28;50.22;;;;;;;;;;5000712;28;20045;-90
2023/02/23 00:40:59;;;;;;;75.63;43.30;;;;;;;;;;4999551;28;20022;-91
2023/02/23 00:43:27;;;;;;;68.57;41.92;;;;;;;;;;5000131;28;20044;-90
2023/02/23 00:45:56;;;;;;;67.97;43.00;;;;;;;;;;4999565;28;20536;-86
2023/02/23 00:48:22;;;;;;;71.82;46.38;;;;;;;;;;4999264;28;20113;-86
2023/02/23 00:50:56;;;;;;;73.80;46.97;;;;;;;;;;4999341;28;20026;-86
2023/02/23 00:53:22;;;;;;;65.70;45.00;;;;;;;;;;5007879;28;20400;-88
2023/02/23 00:55:48;;;;;;;78.18;47.00;;;180.00;2252.80;;;;;;5018682;28;20053;-88
2023/02/23 00:58:16;;;;;;;75.78;46.65;;;;;;;;;;5018500;28;20085;-88
2023/02/23 07:05:05;;;;;;;52.72;36.97;;;;;;;;;;4977469;22;20270;-91
2023/02/23 07:07:37;;;;;;;56.63;37.92;;;;;;;;;;4995223;28;20105;-90
2023/02/23 07:10:06;;;;;;;51.03;33.87;;;;;;;;;;4995017;28;20034;-90
2023/02/23 07:12:32;;;;;;;42.95;30.88;;;;;;;;;;4994744;28;20065;-90
2023/02/23 07:14:59;;;;;;;55.83;38.97;;;;;;;;;;4993962;28;20061;-90
2023/02/23 07:17:25;;;;;;;63.63;41.92;;;;;;;;;;4994029;28;20030;-89
2023/02/23 07:19:51;;;;;;;52.15;32.78;;;;;;;;;;4993801;28;20028;-90
2023/02/23 07:22:17;;;;;;;50.00;32.83;;;;;;;;;;4994125;28;20113;-88
2023/02/23 07:24:43;;;;;;;47.92;30.48;;;;;;;;;;4994154;28;20018;-89
2023/02/23 07:27:09;;;;;;;48.55;30.52;;;;;;;;;;4993757;28;20022;-90
2023/02/23 07:29:35;;;;;;;48.35;30.65;;;;;;;;;;4994042;28;20030;-91
2023/02/23 07:32:01;;;;;;;63.95;41.80;;;154.50;2252.80;;;;;;4993170;28;20033;-82
2023/02/23 07:34:27;;;;;;;55.45;35.65;;;154.40;2252.80;;;;;;4977261;28;20022;-91
2023/02/23 07:36:53;;;;;;;56.28;36.88;;;154.40;2252.80;;;;;;4977608;28;20022;-87
2023/02/23 07:39:19;;;;;;;58.13;35.65;;;;;;;;;;4978781;28;20034;-88
2023/02/23 07:41:45;;;;;;;50.25;33.28;;;;;;;;;;4997612;28;20034;-90
2023/02/23 07:44:11;;;;;;;42.67;30.90;;;179.70;2252.80;;;;;;4997562;28;20034;-90
2023/02/23 07:46:37;;;;;;;41.75;29.55;;;179.60;2252.80;;;;;;4980989;28;20022;-88
2023/02/23 07:49:03;;;;;;;53.78;35.60;;;;;;;;;;4981221;28;20385;-88
2023/02/23 07:51:29;;;;;;;39.63;27.60;;;180.10;2252.80;;;;;;4997406;28;20022;-89
2023/02/23 07:53:54;;;;;;;39.95;28.60;;;180.00;2252.80;;;;;;4980951;28;20485;-88
2023/02/23 07:56:20;;;;;;;38.13;26.38;;;180.00;2252.80;;;;;;4981030;28;20050;-87
2023/02/23 07:58:46;;;;;;;40.08;26.60;;;204.80;2252.80;;;;;;4980542;28;20494;-89
2023/02/23 08:01:12;;;;;;;40.20;26.02;;;204.80;2252.80;;;;;;4980519;28;20077;-90
2023/02/23 08:03:38;;;;;;;39.15;26.95;;;204.90;2252.80;;;;;;4980954;28;20054;-89
2023/02/23 08:06:05;;;;;;;38.58;27.38;;;205.00;2252.80;;;;;;4981076;28;20022;-88
2023/02/23 08:08:31;;;;;;;43.25;27.38;;;204.80;2252.80;;;;;;4982767;28;20026;-88
2023/02/23 08:11:04;;;;;;;35.90;26.27;;;205.20;2252.80;;;;;;4988268;28;20108;-88
2023/02/23 08:13:30;;;;;;;37.75;25.50;;;205.20;2252.80;;;;;;4984784;28;20065;-89
2023/02/23 08:15:57;;;;;;;36.97;23.80;;;205.30;2252.80;;;;;;4980996;28;20162;-88
2023/02/23 08:18:23;;;;;;;35.63;23.65;;;205.30;2252.80;;;;;;5004908;28;20085;-89
2023/02/23 08:20:49;;;;;;;32.50;22.85;;;205.40;2252.80;;;;;;5002736;28;20011;-87
2023/02/23 08:23:16;;;;;;;31.75;21.08;;;205.40;2252.80;;;;;;4982422;28;20068;-90
2023/02/23 08:25:42;;;;;;;29.88;21.55;;;205.50;2252.80;;;;;;4981933;28;20026;-90
2023/02/23 08:28:08;;;;;;;31.55;23.25;;;205.60;2252.80;;;;;;4982275;28;20125;-91
2023/02/23 08:30:34;;;;;;;35.08;25.00;;;205.60;2252.80;;;;;;4980296;28;20121;-89
2023/02/23 08:33:00;;;;;;;35.00;23.70;;;205.70;2252.80;;;;;;4979748;28;20026;-90
2023/02/23 08:35:26;;;;;;;33.30;22.08;;;205.70;2252.80;;;;;;4979541;28;20030;-90
2023/02/23 08:37:52;;;;;;;34.25;23.23;;;230.40;2252.80;;;;;;4980106;28;20033;-88
2023/02/23 08:40:19;;;;;;;40.10;29.50;;;230.40;2252.80;;;;;;4980045;28;20034;-89
2023/02/23 08:42:47;;;;;;;37.53;29.80;;;230.50;2252.80;;;;;;4980138;28;20030;-90
2023/02/23 08:45:14;;;;;;;37.53;29.35;;;230.60;2252.80;;;;;;4980131;28;20501;-90
2023/02/23 08:47:40;;;;;;;37.28;27.40;;;230.70;2252.80;;;;;;4980313;28;20470;-90
2023/02/23 08:50:06;;;;;;;30.73;23.13;;;230.80;2252.80;;;;;;4979300;28;20041;-91
2023/02/23 08:52:32;;;;;;;32.35;25.58;;;231.20;2252.80;;;;;;4980309;28;20022;-92
2023/02/23 08:54:58;;;;;;;37.10;25.23;;;231.00;2252.80;;;;;;4980421;28;20054;-93
2023/02/23 08:57:25;;;;;;;32.75;23.98;;;231.10;2252.80;;;;;;4980411;28;20070;-92
2023/02/23 08:59:51;;;;;;;39.90;26.90;;;231.20;2252.80;;;;;;4980018;28;20044;-92
2023/02/23 09:02:17;;;;;;;34.53;24.75;;;231.20;2252.80;;;;;;4980344;28;20035;-91
2023/02/23 09:04:43;;;;;;;34.85;26.05;;;;;;;;;;4979093;28;20477;-91
2023/02/23 09:07:14;;;;;;;42.67;28.95;;;256.30;2252.80;;;;;;4979959;28;20433;-90
2023/02/23 09:09:40;;;;;;;43.45;33.42;;;;;;;;;;4979091;28;20038;-88
2023/02/23 09:12:06;;;;;;;46.58;30.85;;;;;;;;;;4976069;28;20034;-87
2023/02/23 09:14:33;;;;;;;41.40;30.23;;;;;;;;;;4978196;28;20033;-89
2023/02/23 09:16:59;;;;;;;40.38;31.02;;;;;;;;;;4995072;28;20029;-91
2023/02/23 09:19:26;;;;;;;47.17;33.80;;;;;;;;;;4978240;28;20034;-89
2023/02/23 09:21:52;;;;;;;44.65;30.17;;;;;;;;;;4995351;28;20022;-90
2023/02/23 09:24:20;;;;;;;40.80;31.02;;;;;;;;;;4978846;28;20065;-88
2023/02/23 09:26:46;;;;;;;40.60;29.70;;;;;;;;;;4979057;28;20229;-88
2023/02/23 09:29:13;;;;;;;41.80;31.35;;;;;;;;;;4995144;28;20057;-88
2023/02/23 09:31:39;;;;;;;41.47;28.30;;;;;;;;;;4978951;28;20053;-88
2023/02/23 09:34:08;;;;;;;38.15;30.38;;;;;;;;;;4995211;28;20030;-88
2023/02/23 09:36:34;;;;;;;45.13;32.08;;;;;;;;;;4979175;28;20038;-87
2023/02/23 09:39:00;;;;;;;42.72;31.80;;;;;;;;;;4995026;28;20030;-87
2023/02/23 09:41:29;;;;;;;43.83;30.80;;;;;;;;;;4995173;28;20031;-89
2023/02/23 09:43:55;;;;;;;48.25;35.28;;;;;;;;;;4994951;28;20019;-88
2023/02/23 09:46:29;;;;;;;41.50;30.83;;;;;;;;;;4976917;28;20498;-88
2023/02/23 09:48:57;;;;;;;47.17;31.63;;;307.30;2304.00;;;;;;4994348;28;20031;-87
2023/02/23 09:51:24;;;;;;;44.72;31.33;;;282.50;2278.40;;;;;;4965219;28;20122;-90
2023/02/23 09:53:56;;;;;;;43.58;30.05;;;307.20;2304.00;;;;;;4975055;28;20054;-89
2023/02/23 09:56:31;;;;;;;36.07;27.10;;;307.30;2304.00;;;;;;4962638;28;20018;-89
2023/02/23 09:58:59;;;;;;;34.38;26.35;;;307.30;2304.00;;;;;;4978300;28;20034;-88
2023/02/23 10:01:45;;;;;;;36.35;26.95;;;307.30;2304.00;;;;;;4976864;28;20034;-87
2023/02/23 10:04:31;;;;;;;39.97;27.75;;;307.40;2304.00;;;;;;4977331;28;20100;-89
2023/02/23 10:07:38;;;;;;;43.60;31.08;;;307.50;2304.00;;;;;;4971457;28;20394;-89
2023/02/23 10:10:17;;;;;;;29.65;22.27;;;307.60;2304.00;;;;;;4968407;28;20177;-90
2023/02/23 10:13:02;;;;;;;28.85;20.88;;;307.80;2304.00;;;;;;4995444;28;20108;-89
2023/02/23 10:16:05;;;;;;;36.78;25.58;;;307.90;2304.00;;;;;;4978334;28;20118;-82
2023/02/23 10:18:43;;;;;;;27.77;21.00;;;307.90;2304.00;;;;;;4976706;28;20038;-79
2023/02/23 10:21:57;;;;;;;34.03;23.15;;;308.00;2304.00;;;;;;4977257;28;20389;-83
2023/02/23 10:24:32;;;;;;;27.33;20.42;;;308.00;2304.00;;;;;;4934324;29;20095;-77
2023/02/23 10:27:18;;;;;;;28.35;17.40;;;308.10;2304.00;;;;;;4971033;28;20030;-84
2023/02/23 10:29:59;;;;;;;29.08;18.80;;;308.10;2304.00;;;;;;4977262;28;20031;-80
2023/02/23 10:32:38;;;;;;;28.27;20.08;;;333.00;2329.60;;;;;;4961542;28;20492;-81
2023/02/23 10:35:13;;;;;;;22.73;18.02;;;333.10;2329.60;;;;;;4977199;28;20031;-83
2023/02/23 10:37:39;;;;;;;23.00;17.50;;;333.10;2329.60;;;;;;4994547;28;20026;-80
2023/02/23 10:40:07;;;;;;;30.27;19.65;;;333.20;2329.60;;;;;;4976723;28;20046;-82
2023/02/23 10:42:34;;;;;;;23.67;16.88;;;333.20;2329.60;;;;;;4994691;28;20351;-84
2023/02/23 10:45:01;;;;;;;22.70;15.73;;;333.30;2329.60;;;;;;4977003;28;20042;-79
2023/02/23 10:47:33;;;;;;;24.67;14.75;;;333.40;2329.60;;;;;;4993956;28;20393;-82
2023/02/23 10:50:00;;;;;;;24.13;17.07;;;333.50;2329.60;;;;;;4977012;28;20037;-81
2023/02/23 10:52:39;;;;;;;21.52;15.07;;;333.60;2329.60;;;;;;4977018;28;20113;-81
2023/02/23 10:55:07;;;;;;;24.40;17.23;;;333.70;2329.60;;;;;;4976752;28;20034;-82
2023/02/23 10:57:36;;;;;;;24.63;19.08;;;333.70;2329.60;;;;;;4975387;28;20129;-81
2023/02/23 11:00:25;;;;;;;24.08;18.52;;;333.60;2329.60;;;;;;4974299;28;20054;-83
2023/02/23 11:02:54;;;;;;;21.25;17.23;;;333.70;2329.60;;;;;;4976987;28;20026;-84
2023/02/23 11:05:42;;;;;;;21.77;15.23;;;358.50;2329.60;;;;;;4974417;28;20054;-82
2023/02/23 11:08:20;;;;;;;19.73;14.93;;;358.70;2329.60;;;;;;4976943;28;20029;-85
2023/02/23 11:11:15;;;;;;;17.05;13.77;;;358.80;2329.60;;;;;;4994821;28;20050;-79
2023/02/23 11:13:43;;;;;;;22.25;15.02;;;358.70;2329.60;;;;;;4976643;28;20022;-82
2023/02/23 11:16:15;;;;;;;21.42;14.70;;;358.90;2329.60;;;;;;4976953;28;20365;-79
2023/02/23 11:18:49;;;;;;;26.55;17.02;;;358.90;2329.60;;;;;;4994396;28;20065;-80
2023/02/23 11:21:47;;;;;;;23.27;14.18;;;359.20;2329.60;;;;;;4994278;28;20027;-81
2023/02/23 11:24:25;;;;;;;24.33;18.33;;;359.10;2329.60;;;;;;4973632;28;20042;-83
2023/02/23 11:27:02;;;;;;;21.73;13.55;;;359.20;2329.60;;;;;;4977076;28;20022;-82
2023/02/23 11:29:40;;;;;;;21.73;13.18;;;359.30;2329.60;;;;;;4979112;28;20117;-81
2023/02/23 11:32:16;;;;;;;25.67;15.43;;;384.00;2329.60;;;;;;4995084;28;20040;-82
2023/02/23 11:34:42;;;;;;;20.92;15.45;;;384.30;2329.60;;;;;;5013161;28;20075;-82
2023/02/23 11:37:20;;;;;;;25.05;15.98;;;384.50;2329.60;;;;;;4995978;28;20029;-83
2023/02/23 11:40:01;;;;;;;23.35;17.48;;;384.70;2329.60;;;;;;4995681;28;20120;-84
2023/02/23 11:42:32;;;;;;;23.88;16.63;;;409.60;2355.20;;;;;;4996242;28;20321;-82
2023/02/23 11:45:05;;;;;;;27.20;17.45;;;409.80;2355.20;;;;;;4995972;28;20062;-84
2023/02/23 11:47:33;;;;;;;24.48;15.35;;;410.20;2355.20;;;;;;4996181;28;20080;-83
2023/02/23 11:50:00;;;;;;;27.77;19.38;;;410.30;2329.60;;;;;;4996437;28;20037;-80
2023/02/23 11:52:30;;;;;;;25.67;18.25;;;410.50;2278.40;;;;;;4996310;28;20053;-82
2023/02/23 11:55:04;;;;;;;38.47;25.60;;;435.30;2252.80;;;;;;4996445;28;20030;-83
2023/02/23 11:57:33;;;;;;;29.92;22.80;;;435.80;2252.80;;;;;;4995817;28;20030;-82
2023/02/23 12:00:11;;;;;;;28.63;25.60;;;435.90;2227.20;;;;;;5013591;28;20030;-83
2023/02/23 12:02:51;;;;;;;22.95;17.75;;;436.10;2201.60;;;;;;4995925;28;20040;-83
2023/02/23 12:05:21;;;;;;;34.28;21.63;;;436.10;2176.00;;;;;;5013284;28;20100;-83
2023/02/23 12:07:55;;;;;;;26.63;18.73;;;460.80;2201.60;;;;;;4995193;28;20026;-84
2023/02/23 12:10:33;;;;;;;37.22;22.05;;;460.80;2201.60;;;;;;4995956;28;20033;-81
2023/02/23 12:13:31;;;;;;;30.08;19.92;;;436.10;2176.00;;;;;;4995701;28;20412;-83
2023/02/23 12:16:23;;;;;;;61.28;37.83;;;436.10;2176.00;;;;;;5013569;28;20026;-84
2023/02/23 12:19:22;;;;;;;42.05;24.92;;;460.90;2176.00;;;;;;4995881;28;20033;-84
2023/02/23 12:22:17;;;;;;;36.13;23.48;;;461.10;2150.40;;;;;;5013435;28;20153;-83
2023/02/23 12:25:08;;;;;;;26.17;20.20;;;461.20;2124.80;;;;;;5013989;28;20029;-85
2023/02/23 12:27:50;;;;;;;23.42;16.88;;;461.40;2124.80;;;;;;4999521;28;20026;-83
2023/02/23 12:30:37;;;;;;;24.98;18.10;;;461.50;2124.80;;;;;;4999634;28;20157;-83
2023/02/23 12:33:24;;;;;;;24.55;16.50;;;461.70;2099.20;;;;;;5017182;28;20030;-84
2023/02/23 12:35:59;;;;;;;28.83;18.55;;;461.70;2099.20;;;;;;5017028;28;20021;-84
2023/02/23 12:38:43;;;;;;;25.48;17.45;;;461.70;2099.20;;;;;;5016608;28;20034;-84
2023/02/23 12:41:16;;;;;;;22.75;14.13;;;486.40;2073.60;;;;;;4999341;28;20025;-83
2023/02/23 12:44:43;;;;;;;18.40;12.95;;;486.50;2073.60;;;;;;4999198;28;20034;-83
2023/02/23 12:47:32;;;;;;;26.77;15.63;;;486.50;2073.60;;;;;;4917510;29;20091;-83
2023/02/23 12:50:12;;;;;;;25.63;18.23;;;461.60;2048.00;;;;;;4983918;28;20062;-84
2023/02/23 12:53:01;;;;;;;20.77;13.55;;;461.70;2073.60;;;;;;4997684;28;20029;-81
2023/02/23 12:55:40;;;;;;;34.47;24.05;;;461.70;2073.60;;;;;;4974303;28;20075;-81
2023/02/23 12:58:33;;;;;;;21.83;17.60;;;486.40;2073.60;;;;;;4998179;28;20120;-83
2023/02/23 13:01:28;;;;;;;30.92;18.92;;;486.40;2048.00;;;;;;4985411;28;20461;-81
2023/02/23 13:03:57;;;;;;;22.67;15.88;;;486.40;2048.00;;;;;;4974757;28;20375;-82
2023/02/23 13:06:47;;;;;;;20.15;15.05;;;486.40;2048.00;;;;;;4994187;28;20026;-83
2023/02/23 13:09:41;;;;;;;34.15;23.35;;;486.50;2048.00;;;;;;4978216;28;20023;-80
2023/02/23 13:12:27;;;;;;;21.60;15.63;;;486.50;2048.00;;;;;;4995382;28;20093;-80
2023/02/23 13:15:22;;;;;;;24.42;16.65;;;486.40;2048.00;;;;;;4977181;28;20081;-82
2023/02/23 13:18:00;;;;;;;29.00;21.30;;;461.70;2048.00;;;;;;4996492;28;20026;-82
2023/02/23 13:20:32;;;;;;;30.55;21.92;;;461.60;2073.60;;;;;;4978992;28;20035;-83
2023/02/23 13:23:08;;;;;;;28.33;21.75;;;461.40;2073.60;;;;;;4978738;28;20458;-83
2023/02/23 13:25:47;;;;;;;25.33;18.42;;;461.20;2073.60;;;;;;4978471;28;20042;-82
2023/02/23 13:28:27;;;;;;;22.52;16.38;;;461.10;2099.20;;;;;;4978530;28;20035;-83
2023/02/23 13:30:53;;;;;;;28.33;21.17;;;460.90;2099.20;;;;;;4996332;28;20026;-83
2023/02/23 13:33:33;;;;;;;20.70;15.35;;;460.90;2099.20;;;;;;4978643;28;20029;-84
2023/02/23 13:36:01;;;;;;;23.00;16.33;;;461.20;2099.20;;;;;;4973608;28;20041;-81
2023/02/23 13:38:47;;;;;;;20.88;14.85;;;460.90;2099.20;;;;;;4958031;28;20043;-82
2023/02/23 13:41:46;;;;;;;24.25;15.85;;;460.90;2099.20;;;;;;4974410;28;20038;-81
2023/02/23 13:44:26;;;;;;;28.92;17.23;;;461.00;2124.80;;;;;;4959288;28;20026;-82
2023/02/23 13:47:13;;;;;;;20.00;16.17;;;461.00;2124.80;;;;;;4959291;28;20031;-83
2023/02/23 13:49:58;;;;;;;25.08;16.55;;;460.90;2099.20;;;;;;4926934;28;20046;-82
2023/02/23 13:52:27;;;;;;;19.40;13.63;;;460.90;2099.20;;;;;;4959165;28;20126;-83
2023/02/23 13:54:57;;;;;;;15.52;12.05;;;460.80;2099.20;;;;;;4975028;28;20033;-82
2023/02/23 13:57:26;;;;;;;20.88;14.88;;;460.80;2099.20;;;;;;4974995;28;20128;-81
2023/02/23 13:59:52;;;;;;;28.50;18.35;;;436.10;2073.60;;;;;;4958521;28;20062;-81
2023/02/23 14:02:35;;;;;;;24.52;18.98;;;436.10;2073.60;;;;;;4958707;28;20033;-82
2023/02/23 14:05:25;;;;;;;26.08;17.80;;;436.00;2099.20;;;;;;4954966;29;20163;-84
2023/02/23 14:08:01;;;;;;;27.13;18.67;;;436.00;2099.20;;;;;;4956767;28;20041;-82
2023/02/23 14:10:41;;;;;;;32.13;21.92;;;435.90;2124.80;;;;;;4957065;28;20037;-82
2023/02/23 14:13:14;;;;;;;25.85;19.83;;;435.90;2099.20;;;;;;4958796;28;20039;-84
2023/02/23 14:16:08;;;;;;;25.52;18.70;;;435.80;2099.20;;;;;;4974702;28;20033;-83
2023/02/23 14:18:34;;;;;;;28.25;21.15;;;435.80;2099.20;;;;;;4977767;28;20030;-82
2023/02/23 14:21:12;;;;;;;31.27;21.13;;;435.70;2099.20;;;;;;4962597;28;20031;-81
2023/02/23 14:23:41;;;;;;;30.65;21.63;;;435.60;2099.20;;;;;;4975031;28;20031;-82
2023/02/23 14:26:12;;;;;;;29.17;20.35;;;;;;;;;;4975821;28;20084;-83
2023/02/23 14:28:39;;;;;;;32.42;20.30;;;;;;;;;;4958023;28;20031;-84
2023/02/23 14:31:11;;;;;;;28.98;20.85;;;435.60;2099.20;;;;;;4956606;28;20023;-84
2023/02/23 14:33:58;;;;;;;45.80;32.25;;;435.50;2124.80;;;;;;4974434;28;20059;-83
2023/02/23 14:36:23;;;;;;;34.28;27.33;;;435.50;2124.80;;;;;;4975456;28;20027;-82
2023/02/23 14:38:55;;;;;;;27.90;20.05;;;435.40;2124.80;;;;;;4974913;28;20393;-80
2023/02/23 14:41:28;;;;;;;31.23;23.80;;;435.40;2124.80;;;;;;4974295;28;20027;-83
2023/02/23 14:44:15;;;;;;;27.80;18.65;;;;;;;;;;4974366;28;20078;-82
2023/02/23 14:46:55;;;;;;;27.05;18.88;;;;;;;;;;4957778;28;20023;-84
2023/02/23 14:49:22;;;;;;;25.15;18.70;;;;;;;;;;4975489;28;20018;-85
2023/02/23 14:51:51;;;;;;;31.50;20.45;;;435.30;2150.40;;;;;;4957741;28;20549;-82
2023/02/23 14:54:47;;;;;;;43.20;19.25;;;;;;;;;;4958117;28;20168;-84
2023/02/23 14:57:17;;;;;;;29.30;20.60;;;;;;;;;;4938267;28;20057;-84
2023/02/23 14:59:44;;;;;;;24.73;17.83;;;;;;;;;;4958688;28;20030;-82
2023/02/23 15:02:21;;;;;;;22.50;16.65;;;;;;;;;;4975823;28;20022;-82
2023/02/23 15:04:47;;;;;;;30.02;22.10;;;;;;;;;;4976204;28;20489;-82
2023/02/23 15:07:33;;;;;;;39.00;23.63;;;;;;;;;;4976873;28;20076;-82
2023/02/23 15:10:01;;;;;;;46.83;32.50;;;410.30;2150.40;;;;;;4976863;28;20585;-82
2023/02/23 15:12:33;;;;;;;51.55;37.47;;;410.20;2176.00;;;;;;4977398;28;20062;-81
2023/02/23 15:15:01;;;;;;;50.50;35.45;;;410.00;2176.00;;;;;;4977065;28;20363;-80
2023/02/23 15:17:30;;;;;;;42.05;32.38;;;410.00;2176.00;;;;;;4976999;28;20056;-82
2023/02/23 15:20:04;;;;;;;45.92;33.22;;;410.00;2176.00;;;;;;4976641;28;20042;-80
2023/02/23 15:22:36;;;;;;;46.22;29.52;;;409.90;2176.00;;;;;;4993099;28;20045;-78
2023/02/23 15:25:13;;;;;;;54.78;37.50;;;409.80;2176.00;;;;;;4977090;28;20117;-81
2023/02/23 15:27:44;;;;;;;46.42;31.50;;;409.70;2176.00;;;;;;4976337;28;20062;-81
2023/02/23 15:30:30;;;;;;;58.42;36.83;;;409.70;2201.60;;;;;;4977030;28;20047;-79
2023/02/23 15:33:05;;;;;;;54.75;35.88;;;409.60;2201.60;;;;;;4994331;28;20026;-81
2023/02/23 15:35:41;;;;;;;45.70;33.92;;;384.90;2176.00;;;;;;4976728;28;20026;-85
2023/02/23 15:38:08;;;;;;;37.60;27.58;;;384.90;2176.00;;;;;;4994391;28;20026;-79
2023/02/23 15:40:34;;;;;;;38.03;28.35;;;384.70;2176.00;;;;;;4977063;28;20066;-81
2023/02/23 15:43:00;;;;;;;49.17;35.63;;;384.70;2201.60;;;;;;4976618;28;20030;-80
2023/02/23 15:45:28;;;;;;;48.55;37.55;;;384.70;2201.60;;;;;;4977046;28;20031;-80
2023/02/23 15:47:59;;;;;;;59.45;46.70;;;384.70;2227.20;;;;;;4976569;28;20026;-78
2023/02/23 15:50:34;;;;;;;73.82;54.25;;;384.60;2227.20;;;;;;4994385;28;20030;-82
2023/02/23 15:53:13;;;;;;;64.93;42.92;;;384.50;2227.20;;;;;;4976747;28;20033;-81
2023/02/23 15:55:42;;;;;;;49.45;33.58;;;384.40;2227.20;;;;;;4976608;28;20026;-81
2023/02/23 15:58:28;;;;;;;50.17;33.88;;;384.40;2227.20;;;;;;4994597;28;20026;-83
2023/02/23 16:01:07;;;;;;;53.25;33.30;;;384.30;2252.80;;;;;;4979582;28;20030;-81
2023/02/23 16:03:36;;;;;;;43.67;29.55;;;384.10;2252.80;;;;;;4980360;28;20077;-80
2023/02/23 16:06:31;;;;;;;49.35;38.55;;;384.00;2278.40;;;;;;5003750;28;20034;-82
2023/02/23 16:08:58;;;;;;;54.53;37.45;;;359.30;2278.40;;;;;;5021149;28;20039;-79
2023/02/23 16:11:25;;;;;;;49.83;36.35;;;359.20;2278.40;;;;;;4999614;28;20028;-80
2023/02/23 16:13:53;;;;;;;55.97;40.13;;;359.00;2304.00;;;;;;4998046;28;20026;-81
2023/02/23 16:16:23;;;;;;;66.72;43.58;;;359.00;2304.00;;;;;;4979842;28;20034;-80
2023/02/23 16:19:00;;;;;;;58.10;37.35;;;358.90;2304.00;;;;;;4980103;28;20039;-80
2023/02/23 16:21:31;;;;;;;56.42;39.58;;;358.90;2304.00;;;;;;4980185;28;20053;-78
2023/02/23 16:24:00;;;;;;;63.15;46.53;;;358.80;2329.60;;;;;;4997286;28;20026;-83
2023/02/23 16:26:32;;;;;;;62.47;44.25;;;358.80;2329.60;;;;;;4980368;28;20033;-79
2023/02/23 16:29:01;;;;;;;70.07;46.70;;;358.70;2329.60;;;;;;4980080;28;20527;-81
2023/02/23 16:32:01;;;;;;;60.63;43.78;;;358.60;2329.60;;;;;;4979862;28;20072;-81
2023/02/23 16:34:45;;;;;;;69.03;41.30;;;358.60;2329.60;;;;;;4929148;28;20038;-80
2023/02/23 16:37:24;;;;;;;129.38;66.97;;;358.50;2329.60;;;;;;4979790;28;20026;-83
2023/02/23 16:39:51;;;;;;;115.15;63.03;;;358.40;2329.60;;;;;;4997234;28;20034;-78
2023/02/23 16:42:21;;;;;;;223.52;114.88;;;;;;;;;;4997392;28;20034;-82
2023/02/23 16:44:47;;;;;;;182.20;106.07;;;;;;;;;;4979433;28;20029;-81
2023/02/23 16:47:22;;;;;;;106.32;65.85;;;;;;;;;;4979933;28;20026;-81
2023/02/23 16:49:51;;;;;;;72.70;45.17;;;358.40;2329.60;;;;;;4979489;28;20441;-81
2023/02/23 16:52:24;;;;;;;59.20;39.42;;;333.60;2329.60;;;;;;4996856;28;20030;-79
2023/02/23 16:54:50;;;;;;;49.35;33.85;;;333.50;2329.60;;;;;;4979548;28;20496;-80
2023/02/23 16:57:26;;;;;;;55.08;35.30;;;333.60;2329.60;;;;;;4996878;28;20035;-81
2023/02/23 16:59:53;;;;;;;56.72;35.75;;;333.50;2329.60;;;;;;4996919;28;20092;-81
2023/02/23 17:02:21;;;;;;;54.60;36.92;;;333.50;2329.60;;;;;;4979446;28;20040;-80
2023/02/23 17:04:48;;;;;;;43.42;31.00;;;333.40;2329.60;;;;;;4978797;28;20054;-79
2023/02/23 17:07:19;;;;;;;45.17;31.75;;;333.40;2329.60;;;;;;4979487;28;20030;-80
2023/02/23 17:09:46;;;;;;;54.38;37.05;;;333.30;2329.60;;;;;;4997111;28;20073;-80
2023/02/23 17:12:20;;;;;;;53.67;35.50;;;333.30;2329.60;;;;;;4977903;28;20057;-79
2023/02/23 17:14:48;;;;;;;73.07;44.28;;;333.20;2329.60;;;;;;4979245;28;20426;-82
2023/02/23 17:17:18;;;;;;;66.50;42.35;;;333.20;2329.60;;;;;;4979236;28;20537;-79
2023/02/23 17:19:45;;;;;;;60.88;42.78;;;333.20;2329.60;;;;;;4979439;28;20031;-84
2023/02/23 17:22:12;;;;;;;61.72;41.45;;;333.10;2329.60;;;;;;4981715;28;20060;-83
2023/02/23 17:24:39;;;;;;;66.05;40.83;;;333.10;2329.60;;;;;;4986135;28;20026;-86
2023/02/23 17:27:04;;;;;;;65.85;46.72;;;333.00;2329.60;;;;;;4982074;28;20023;-85
2023/02/23 17:29:30;;;;;;;76.25;55.40;;;333.00;2329.60;;;;;;4979414;28;20038;-87
2023/02/23 17:31:58;;;;;;;79.72;55.90;;;332.90;2329.60;;;;;;4979454;28;20113;-86
2023/02/23 17:34:28;;;;;;;81.63;55.88;;;332.90;2329.60;;;;;;4979133;28;20034;-85
2023/02/23 17:36:54;;;;;;;82.15;55.80;;;332.80;2329.60;;;;;;4979179;28;20085;-85
2023/02/23 17:39:20;;;;;;;66.28;50.78;;;332.90;2329.60;;;;;;4979239;28;20034;-87
2023/02/23 17:41:46;;;;;;;70.80;54.88;;;332.90;2329.60;;;;;;4996407;28;20022;-83
2023/02/23 17:44:11;;;;;;;58.47;42.40;;;308.10;2304.00;;;;;;4979098;28;20466;-85
2023/02/23 17:46:37;;;;;;;61.20;44.63;;;308.10;2304.00;;;;;;4978777;28;20031;-84
2023/02/23 17:49:04;;;;;;;85.65;55.90;;;;;;;;;;4978946;28;20034;-84
2023/02/23 17:51:30;;;;;;;78.50;53.35;;;308.00;2304.00;;;;;;4979005;28;20462;-87
2023/02/23 17:53:55;;;;;;;100.63;58.30;;;307.90;2304.00;;;;;;4978794;28;20032;-85
2023/02/23 17:56:22;;;;;;;110.10;67.75;;;;;;;;;;4978797;28;20037;-85
2023/02/23 17:58:49;;;;;;;124.22;71.60;;;;;;;;;;4978733;28;20389;-85
2023/02/23 18:01:16;;;;;;;125.72;74.70;;;;;;;;;;4978957;28;20106;-85
2023/02/23 18:03:42;;;;;;;118.95;72.68;;;;;;;;;;4975359;28;20042;-86
2023/02/23 18:06:12;;;;;;;128.43;75.88;;;;;;;;;;4972766;28;20049;-87
2023/02/23 18:08:41;;;;;;;155.60;86.03;;;307.60;2304.00;;;;;;4978300;28;20030;-88
2023/02/23 18:11:07;;;;;;;131.57;79.15;;;307.40;2304.00;;;;;;4978693;28;20033;-87
2023/02/23 18:13:33;;;;;;;119.10;79.18;;;307.30;2304.00;;;;;;4978704;28;20041;-85
2023/02/23 18:16:07;;;;;;;137.18;89.45;;;307.20;2304.00;;;;;;4979777;28;20050;-85
2023/02/23 18:18:38;;;;;;;160.98;106.28;;;282.50;2278.40;;;;;;4980960;28;20026;-87
2023/02/23 18:21:13;;;;;;;169.10;107.97;;;282.40;2278.40;;;;;;4978349;28;20031;-87
2023/02/23 18:23:39;;;;;;;141.30;91.18;;;282.30;2278.40;;;;;;4994562;28;20117;-89
2023/02/23 18:26:10;;;;;;;143.10;90.22;;;282.40;2278.40;;;;;;4978336;28;20053;-87
2023/02/23 18:28:37;;;;;;;133.95;81.80;;;282.00;2278.40;;;;;;4978386;28;20045;-83
2023/02/23 18:31:03;;;;;;;115.22;75.35;;;282.30;2278.40;;;;;;4978364;28;20027;-86
2023/02/23 18:33:30;;;;;;;106.65;67.55;;;282.20;2278.40;;;;;;4978784;28;20026;-87
2023/02/23 18:35:56;;;;;;;95.60;63.13;;;282.20;2278.40;;;;;;4978494;28;20070;-86
2023/02/23 18:38:21;;;;;;;80.35;54.08;;;282.10;2278.40;;;;;;4978095;28;20050;-81
2023/02/23 18:40:47;;;;;;;71.55;50.70;;;282.10;2278.40;;;;;;4978392;28;20098;-86
2023/02/23 18:43:14;;;;;;;64.15;41.47;;;282.10;2278.40;;;;;;4978250;28;20042;-87
2023/02/23 18:45:40;;;;;;;60.40;42.60;;;282.00;2278.40;;;;;;4978161;28;20026;-88
2023/02/23 18:48:09;;;;;;;52.40;35.35;;;282.00;2278.40;;;;;;4995365;28;20474;-85
2023/02/23 18:50:35;;;;;;;50.25;35.95;;;282.10;2278.40;;;;;;4977462;28;20092;-85
2023/02/23 18:53:05;;;;;;;56.83;39.60;;;282.00;2278.40;;;;;;4977656;28;20053;-86
2023/02/23 18:55:31;;;;;;;68.88;43.33;;;281.80;2278.40;;;;;;4994991;28;20062;-84
2023/02/23 18:57:56;;;;;;;65.63;43.67;;;281.90;2278.40;;;;;;4994582;28;20355;-84
2023/02/23 19:00:22;;;;;;;74.30;46.75;;;281.90;2278.40;;;;;;4975680;28;20154;-84